createdAt,value
2023-07-15T00:00:15.356Z,5.90
2023-07-15T00:02:46.082Z,5.10
2023-07-15T00:05:36.413Z,3.60
2023-07-15T00:08:04.997Z,2.70
2023-07-15T00:10:34.701Z,3.00
2023-07-15T00:13:03.079Z,7.70
2023-07-15T00:15:30.709Z,11.10
2023-07-15T00:17:58.785Z,3.30
2023-07-15T00:20:26.467Z,6.30
2023-07-15T00:22:54.229Z,8.00
2023-07-15T00:25:22.129Z,5.00
2023-07-15T00:27:49.905Z,4.10
2023-07-15T00:30:18.607Z,3.00
2023-07-15T00:32:48.546Z,5.80
2023-07-15T00:35:22.205Z,6.40
2023-07-15T00:37:49.972Z,8.40
2023-07-15T00:40:18.998Z,2.80
2023-07-15T00:43:24.064Z,4.40
2023-07-15T00:46:15.190Z,7.40
2023-07-15T00:48:46.965Z,4.50
2023-07-15T00:51:14.835Z,6.20
2023-07-15T00:53:42.505Z,2.80
2023-07-15T00:56:10.991Z,3.20
2023-07-15T00:58:38.766Z,5.20
2023-07-15T01:01:07.553Z,7.20
2023-07-15T01:03:35.400Z,6.40
2023-07-15T01:06:03.469Z,5.30
2023-07-15T01:08:31.217Z,5.30
2023-07-15T01:10:59.712Z,7.00
2023-07-15T01:13:27.659Z,5.50
2023-07-15T01:15:55.425Z,12.00
2023-07-15T01:18:23.258Z,2.80
2023-07-15T01:20:54.274Z,7.40
2023-07-15T01:23:22.213Z,3.80
2023-07-15T01:25:49.974Z,5.80
2023-07-15T01:28:17.669Z,9.10
2023-07-15T01:30:45.347Z,2.60
2023-07-15T01:33:16.384Z,6.90
2023-07-15T01:35:49.221Z,3.60
2023-07-15T01:38:17.092Z,4.20
2023-07-15T01:40:46.382Z,5.00
2023-07-15T01:43:14.576Z,6.70
2023-07-15T01:45:42.309Z,4.60
2023-07-15T01:48:10.192Z,4.00
2023-07-15T01:50:37.926Z,4.80
2023-07-15T01:53:06.200Z,6.30
2023-07-15T01:55:34.006Z,7.20
2023-07-15T01:58:02.785Z,7.30
2023-07-15T02:00:30.881Z,4.50
2023-07-15T02:02:58.773Z,4.80
2023-07-15T02:05:26.901Z,3.30
2023-07-15T02:07:56.321Z,4.70
2023-07-15T02:10:24.740Z,5.00
2023-07-15T02:12:52.468Z,3.30
2023-07-15T02:15:20.298Z,3.30
2023-07-15T02:17:48.229Z,5.10
2023-07-15T02:20:17.064Z,6.30
2023-07-15T02:22:44.920Z,5.20
2023-07-15T02:25:12.908Z,3.10
2023-07-15T02:27:40.650Z,3.80
2023-07-15T02:30:10.417Z,2.80
2023-07-15T02:32:40.789Z,5.80
2023-07-15T02:35:10.506Z,2.80
2023-07-15T02:37:39.429Z,5.20
2023-07-15T02:40:08.012Z,4.90
2023-07-15T02:42:35.673Z,4.50
2023-07-15T02:45:07.353Z,5.70
2023-07-15T02:47:35.485Z,3.60
2023-07-15T02:50:07.852Z,3.80
2023-07-15T02:52:37.108Z,6.90
2023-07-15T02:55:05.770Z,7.20
2023-07-15T02:57:34.179Z,5.70
2023-07-15T03:00:02.034Z,7.20
2023-07-15T03:02:30.948Z,5.50
2023-07-15T03:04:58.832Z,3.00
2023-07-15T03:07:26.556Z,4.40
2023-07-15T03:09:54.241Z,4.40
2023-07-15T03:12:23.056Z,3.10
2023-07-15T03:14:50.816Z,4.90
2023-07-15T03:17:19.252Z,4.50
2023-07-15T03:19:46.934Z,4.60
2023-07-15T03:22:14.686Z,4.10
2023-07-15T03:24:42.423Z,6.20
2023-07-15T03:27:10.594Z,3.80
2023-07-15T03:29:38.292Z,4.60
2023-07-15T03:32:06.279Z,4.20
2023-07-15T03:34:35.310Z,3.10
2023-07-15T03:37:03.443Z,3.90
2023-07-15T03:39:31.809Z,3.10
2023-07-15T03:41:59.849Z,5.40
2023-07-15T03:44:28.725Z,5.70
2023-07-15T03:46:58.602Z,4.60
2023-07-15T03:49:26.479Z,3.20
2023-07-15T03:51:54.389Z,2.90
2023-07-15T03:54:22.683Z,4.40
2023-07-15T03:56:50.537Z,2.90
2023-07-15T03:59:18.411Z,3.80
2023-07-15T04:01:46.650Z,4.10
2023-07-15T04:04:14.520Z,3.60
2023-07-15T04:06:42.836Z,2.30
2023-07-15T04:09:13.404Z,4.30
2023-07-15T04:11:41.980Z,4.20
2023-07-15T04:14:09.850Z,6.50
2023-07-15T04:16:37.727Z,6.70
2023-07-15T04:19:05.705Z,3.80
2023-07-15T04:21:33.524Z,3.30
2023-07-15T04:24:01.514Z,6.10
2023-07-15T04:26:29.414Z,5.90
2023-07-15T04:28:57.413Z,2.40
2023-07-15T04:31:25.368Z,3.20
2023-07-15T04:33:53.310Z,3.10
2023-07-15T04:36:21.937Z,4.10
2023-07-15T04:38:50.620Z,2.70
2023-07-15T04:41:18.618Z,4.00
2023-07-15T04:43:46.619Z,2.90
2023-07-15T04:46:15.424Z,3.60
2023-07-15T04:48:44.569Z,4.70
2023-07-15T04:51:12.796Z,7.30
2023-07-15T04:53:44.805Z,6.80
2023-07-15T04:56:13.292Z,5.50
2023-07-15T04:58:41.560Z,6.20
2023-07-15T05:01:09.552Z,2.60
2023-07-15T05:03:37.920Z,3.80
2023-07-15T05:06:05.900Z,5.20
2023-07-15T05:08:33.920Z,3.30
2023-07-15T05:11:01.994Z,4.10
2023-07-15T05:13:30.466Z,5.10
2023-07-15T05:15:58.463Z,3.00
2023-07-15T05:18:26.607Z,5.20
2023-07-15T05:20:54.650Z,2.90
2023-07-15T05:23:23.738Z,3.50
2023-07-15T05:25:52.791Z,5.40
2023-07-15T05:28:20.801Z,3.40
2023-07-15T05:30:49.085Z,2.80
2023-07-15T05:33:17.093Z,3.70
2023-07-15T05:35:45.180Z,2.70
2023-07-15T05:38:14.199Z,3.20
2023-07-15T05:40:44.135Z,3.80
2023-07-15T05:43:14.652Z,3.60
2023-07-15T05:45:45.231Z,3.70
2023-07-15T05:48:15.789Z,4.90
2023-07-15T05:50:46.703Z,6.10
2023-07-15T05:53:16.187Z,5.00
2023-07-15T05:55:47.512Z,7.30
2023-07-15T05:58:18.223Z,4.10
2023-07-15T06:00:48.776Z,5.30
2023-07-15T06:03:19.083Z,9.70
2023-07-15T06:05:50.038Z,7.80
2023-07-15T06:08:20.387Z,4.50
2023-07-15T06:10:50.721Z,6.60
2023-07-15T06:13:21.737Z,5.10
2023-07-15T06:15:52.237Z,5.20
2023-07-15T06:18:22.730Z,6.50
2023-07-15T06:20:54.769Z,6.10
2023-07-15T06:23:25.245Z,7.90
2023-07-15T06:25:55.211Z,5.60
2023-07-15T06:28:25.228Z,5.60
2023-07-15T06:31:04.808Z,5.60
2023-07-15T06:33:38.500Z,2.30
2023-07-15T06:36:09.052Z,3.10
2023-07-15T06:46:20.768Z,4.00
2023-07-15T06:48:49.721Z,4.60
2023-07-15T06:51:17.696Z,4.40
2023-07-15T07:01:22.553Z,4.20
2023-07-15T07:11:26.244Z,3.20
2023-07-15T07:13:54.269Z,4.20
2023-07-15T07:16:21.962Z,2.90
2023-07-15T07:18:49.837Z,3.30
2023-07-15T07:21:18.073Z,2.10
2023-07-15T07:23:46.359Z,2.20
2023-07-15T07:26:14.363Z,4.50
2023-07-15T07:28:45.975Z,2.30
2023-07-15T07:31:14.501Z,2.40
2023-07-15T07:33:43.154Z,2.70
2023-07-15T07:36:10.924Z,5.30
2023-07-15T07:38:38.704Z,5.30
2023-07-15T07:41:07.379Z,8.40
2023-07-15T07:43:35.657Z,3.50
2023-07-15T07:46:04.813Z,3.20
2023-07-15T07:48:32.803Z,7.50
2023-07-15T07:51:01.292Z,2.70
2023-07-15T07:53:29.723Z,4.30
2023-07-15T07:55:57.694Z,6.10
2023-07-15T07:58:25.469Z,5.70
2023-07-15T08:00:53.171Z,9.20
2023-07-15T08:03:20.979Z,8.30
2023-07-15T08:05:49.257Z,9.70
2023-07-15T08:08:17.223Z,5.90
2023-07-15T08:10:45.053Z,6.70
2023-07-15T08:13:13.319Z,6.60
2023-07-15T08:15:41.049Z,4.90
2023-07-15T08:18:08.861Z,3.60
2023-07-15T08:20:38.651Z,5.50
2023-07-15T08:27:38.544Z,9.50
2023-07-15T08:30:06.813Z,8.00
2023-07-15T08:32:34.557Z,3.70
2023-07-15T08:35:03.615Z,4.40
2023-07-15T08:37:31.522Z,3.90
2023-07-15T08:39:59.211Z,4.90
2023-07-15T08:42:27.180Z,5.40
2023-07-15T08:44:54.958Z,7.80
2023-07-15T08:47:24.099Z,3.00
2023-07-15T08:49:53.362Z,6.10
2023-07-15T08:52:24.450Z,3.70
2023-07-15T08:54:53.289Z,2.90
2023-07-15T08:57:23.393Z,3.40
2023-07-15T08:59:53.533Z,7.50
2023-07-15T09:04:00.392Z,3.40
2023-07-15T09:06:29.525Z,6.10
2023-07-15T09:08:57.595Z,2.90
2023-07-15T09:11:25.475Z,3.20
2023-07-15T09:13:53.222Z,2.50
2023-07-15T09:16:21.498Z,1.80
2023-07-15T09:18:49.322Z,7.20
2023-07-15T09:21:18.192Z,3.40
2023-07-15T09:23:47.238Z,5.70
2023-07-15T09:26:15.155Z,3.30
2023-07-15T09:28:43.583Z,1.80
2023-07-15T09:31:11.292Z,5.70
2023-07-15T09:33:41.079Z,2.00
2023-07-15T09:36:11.083Z,3.00
2023-07-15T09:38:39.798Z,2.70
2023-07-15T09:41:11.948Z,3.20
2023-07-15T09:43:51.389Z,6.30
2023-07-15T09:46:20.993Z,3.80
2023-07-15T09:48:52.782Z,5.30
2023-07-15T09:51:21.134Z,3.80
2023-07-15T10:01:36.679Z,3.90
2023-07-15T10:04:39.930Z,5.20
2023-07-15T10:09:35.525Z,3.00
2023-07-15T10:12:03.604Z,3.50
2023-07-15T10:14:32.620Z,2.50
2023-07-15T10:17:13.929Z,2.30
2023-07-15T10:19:44.948Z,5.40
2023-07-15T10:22:13.201Z,4.10
2023-07-15T10:24:42.709Z,3.30
2023-07-15T10:34:53.744Z,2.50
2023-07-15T10:37:21.710Z,6.30
2023-07-15T10:39:49.677Z,4.10
2023-07-15T10:42:18.195Z,4.00
2023-07-15T10:44:47.518Z,1.50
2023-07-15T10:47:18.571Z,6.70
2023-07-15T10:49:47.462Z,1.50
2023-07-15T10:52:20.075Z,2.90
2023-07-15T10:54:48.301Z,2.30
2023-07-15T10:57:17.300Z,2.00
2023-07-15T10:59:46.567Z,4.00
2023-07-15T11:02:14.479Z,4.60
2023-07-15T11:04:42.920Z,3.80
2023-07-15T11:14:55.487Z,2.10
2023-07-15T11:17:23.513Z,6.50
2023-07-15T11:19:51.450Z,2.80
2023-07-15T11:22:19.360Z,5.80
2023-07-15T11:24:50.012Z,4.00
2023-07-15T11:27:18.736Z,2.10
2023-07-15T11:29:46.412Z,2.40
2023-07-15T11:32:16.290Z,2.50
2023-07-15T11:34:43.968Z,1.50
2023-07-15T11:44:41.588Z,9.50
2023-07-15T11:47:09.572Z,2.00
2023-07-15T11:49:45.974Z,2.10
2023-07-15T11:52:21.534Z,2.00
2023-07-15T11:54:49.185Z,3.20
2023-07-15T11:57:26.386Z,3.80
2023-07-15T11:59:54.277Z,1.90
2023-07-15T12:02:22.177Z,2.60
2023-07-15T12:04:50.211Z,2.80
2023-07-15T12:07:21.182Z,1.60
2023-07-15T12:09:48.923Z,3.00
2023-07-15T12:12:16.575Z,4.10
2023-07-15T12:14:44.265Z,1.70
2023-07-15T12:17:12.040Z,1.80
2023-07-15T12:19:39.725Z,2.70
2023-07-15T12:22:07.399Z,2.10
2023-07-15T12:24:35.398Z,3.10
2023-07-15T12:27:03.330Z,2.80
2023-07-15T12:29:31.065Z,2.90
2023-07-15T12:31:58.724Z,2.70
2023-07-15T12:34:26.522Z,1.90
2023-07-15T12:36:54.330Z,1.60
2023-07-15T12:39:22.923Z,3.30
2023-07-15T12:41:50.598Z,1.70
2023-07-15T12:44:18.582Z,4.30
2023-07-15T12:46:46.370Z,1.60
2023-07-15T12:49:14.116Z,2.00
2023-07-15T12:51:43.439Z,1.90
2023-07-15T12:54:11.122Z,3.30
2023-07-15T12:56:38.848Z,2.30
2023-07-15T12:59:07.007Z,2.00
2023-07-15T13:01:34.771Z,2.10
2023-07-15T13:04:02.620Z,1.80
2023-07-15T13:06:30.415Z,2.30
2023-07-15T13:08:58.125Z,2.00
2023-07-15T13:11:25.868Z,1.90
2023-07-15T13:13:53.507Z,2.50
2023-07-15T13:16:21.326Z,4.70
2023-07-15T13:18:49.126Z,3.10
2023-07-15T13:21:17.216Z,2.40
2023-07-15T13:23:45.148Z,3.70
2023-07-15T13:26:12.871Z,2.10
2023-07-15T13:28:40.641Z,2.90
2023-07-15T13:31:08.368Z,3.10
2023-07-15T13:33:38.295Z,3.70
2023-07-15T13:36:07.609Z,2.90
2023-07-15T13:38:35.260Z,3.50
2023-07-15T13:41:02.906Z,2.70
2023-07-15T13:43:30.584Z,2.10
2023-07-15T13:45:58.598Z,1.80
2023-07-15T13:48:26.356Z,4.60
2023-07-15T13:50:54.057Z,1.70
2023-07-15T13:53:21.763Z,3.00
2023-07-15T13:55:49.438Z,3.00
2023-07-15T13:58:17.085Z,3.40
2023-07-15T14:00:45.628Z,2.40
2023-07-15T14:03:13.321Z,2.40
2023-07-15T14:05:41.118Z,2.40
2023-07-15T14:08:08.825Z,3.00
2023-07-15T14:10:36.527Z,2.30
2023-07-15T14:13:04.172Z,4.30
2023-07-15T14:15:31.846Z,4.40
2023-07-15T14:18:02.239Z,2.40
2023-07-15T14:20:29.967Z,2.20
2023-07-15T14:22:57.732Z,2.80
2023-07-15T14:25:25.483Z,2.20
2023-07-15T14:27:53.163Z,3.00
2023-07-15T14:30:20.860Z,3.80
2023-07-15T14:32:48.666Z,2.60
2023-07-15T14:35:16.643Z,2.00
2023-07-15T14:37:44.363Z,3.40
2023-07-15T14:40:13.404Z,4.90
2023-07-15T14:42:41.392Z,2.20
2023-07-15T14:45:09.484Z,2.40
2023-07-15T14:47:38.078Z,4.20
2023-07-15T14:50:06.400Z,4.30
2023-07-15T14:52:34.177Z,2.90
2023-07-15T14:55:01.861Z,5.60
2023-07-15T14:57:29.542Z,4.70
2023-07-15T14:59:57.606Z,8.80
2023-07-15T15:02:25.440Z,5.70
2023-07-15T15:04:53.177Z,1.90
2023-07-15T15:07:21.934Z,3.50
2023-07-15T15:09:49.675Z,6.80
2023-07-15T15:12:17.409Z,3.70
2023-07-15T15:14:45.179Z,2.70
2023-07-15T15:17:14.051Z,3.80
2023-07-15T15:19:41.761Z,4.20
2023-07-15T15:22:09.491Z,4.30
2023-07-15T15:24:37.140Z,4.30
2023-07-15T15:27:04.901Z,2.10
2023-07-15T15:29:32.609Z,2.30
2023-07-15T15:32:00.356Z,4.10
2023-07-15T15:34:28.138Z,2.90
2023-07-15T15:36:55.863Z,2.70
2023-07-15T15:39:23.574Z,2.80
2023-07-15T15:41:51.275Z,3.60
2023-07-15T15:44:19.004Z,2.90
2023-07-15T15:46:46.709Z,4.60
2023-07-15T15:49:14.604Z,2.10
2023-07-15T15:51:42.301Z,4.00
2023-07-15T15:54:10.378Z,5.50
2023-07-15T15:56:38.057Z,3.90
2023-07-15T15:59:06.905Z,2.30
2023-07-15T16:01:34.713Z,2.20
2023-07-15T16:04:02.577Z,5.00
2023-07-15T16:06:30.785Z,2.60
2023-07-15T16:08:58.534Z,3.70
2023-07-15T16:11:26.530Z,3.40
2023-07-15T16:13:54.293Z,2.40
2023-07-15T16:16:22.112Z,5.40
2023-07-15T16:18:49.898Z,6.40
2023-07-15T16:21:18.216Z,3.00
2023-07-15T16:23:45.976Z,3.60
2023-07-15T16:26:13.767Z,3.50
2023-07-15T16:28:41.512Z,2.40
2023-07-15T16:31:09.254Z,3.60
2023-07-15T16:33:36.964Z,2.70
2023-07-15T16:36:04.835Z,3.10
2023-07-15T16:38:32.640Z,3.10
2023-07-15T16:41:01.898Z,3.50
2023-07-15T16:43:30.004Z,5.10
2023-07-15T16:45:57.868Z,4.90
2023-07-15T16:48:25.777Z,6.80
2023-07-15T16:50:53.586Z,6.00
2023-07-15T16:53:22.031Z,5.50
2023-07-15T16:55:50.053Z,6.80
2023-07-15T16:58:18.760Z,6.80
2023-07-15T17:00:46.662Z,7.70
2023-07-15T17:03:14.636Z,6.60
2023-07-15T17:05:42.561Z,9.60
2023-07-15T17:08:10.409Z,8.30
2023-07-15T17:10:38.218Z,6.60
2023-07-15T17:13:06.061Z,6.30
2023-07-15T17:15:33.947Z,6.30
2023-07-15T17:18:01.998Z,6.80
2023-07-15T17:20:29.906Z,7.90
2023-07-15T17:22:57.786Z,6.10
2023-07-15T17:25:25.706Z,7.00
2023-07-15T17:27:53.975Z,5.20
2023-07-15T17:30:21.777Z,5.00
2023-07-15T17:32:49.967Z,6.20
2023-07-15T17:35:17.996Z,5.20
2023-07-15T17:37:45.761Z,9.70
2023-07-15T17:40:13.861Z,4.00
2023-07-15T17:42:41.982Z,8.00
2023-07-15T17:45:10.706Z,5.70
2023-07-15T17:47:38.785Z,7.30
2023-07-15T17:50:07.913Z,7.00
2023-07-15T17:52:37.311Z,6.60
2023-07-15T17:55:17.363Z,7.50
2023-07-15T17:57:51.863Z,9.00
2023-07-15T18:00:21.070Z,6.80
2023-07-15T18:02:50.643Z,7.50
2023-07-15T18:05:18.943Z,8.40
2023-07-15T18:07:47.074Z,10.30
2023-07-15T18:10:15.082Z,8.60
2023-07-15T18:12:43.701Z,9.50
2023-07-15T18:15:12.238Z,11.80
2023-07-15T18:17:40.166Z,10.20
2023-07-15T18:20:09.006Z,13.30
2023-07-15T18:22:38.078Z,16.50
2023-07-15T18:25:07.055Z,17.00
2023-07-15T18:27:35.056Z,12.10
2023-07-15T18:30:03.174Z,17.10
2023-07-15T18:32:31.324Z,12.40
2023-07-15T18:34:59.792Z,19.70
2023-07-15T18:37:27.851Z,12.90
2023-07-15T18:39:57.347Z,14.10
2023-07-15T18:42:27.364Z,19.60
2023-07-15T18:44:57.292Z,22.30
2023-07-15T18:47:26.732Z,17.00
2023-07-15T18:49:57.762Z,10.90
2023-07-15T18:52:28.593Z,11.30
2023-07-15T18:59:42.764Z,18.30
2023-07-15T19:02:14.864Z,18.20
2023-07-15T19:04:46.762Z,14.60
2023-07-15T19:07:17.550Z,14.90
2023-07-15T19:09:48.176Z,13.20
2023-07-15T19:12:18.837Z,11.80
2023-07-15T19:14:49.284Z,12.80
2023-07-15T19:17:19.245Z,12.80
2023-07-15T19:19:48.801Z,13.30
2023-07-15T19:22:19.302Z,14.20
2023-07-15T19:24:49.372Z,14.40
2023-07-15T19:27:19.862Z,16.30
2023-07-15T19:34:33.900Z,16.00
2023-07-15T19:37:04.362Z,15.70
2023-07-15T19:46:17.488Z,10.10
2023-07-15T19:48:46.962Z,10.10
2023-07-15T19:51:14.768Z,14.10
2023-07-15T19:53:43.530Z,9.60
2023-07-15T19:56:11.420Z,14.00
2023-07-15T20:05:18.760Z,7.40
2023-07-15T20:07:46.416Z,7.60
2023-07-15T20:10:13.295Z,12.70
2023-07-15T20:12:41.335Z,12.30
2023-07-15T20:15:09.292Z,13.10
2023-07-15T20:17:36.356Z,7.90
2023-07-15T20:20:04.641Z,10.10
2023-07-15T20:22:32.053Z,11.00
2023-07-15T20:24:59.350Z,14.10
2023-07-15T20:27:26.475Z,9.50
2023-07-15T20:29:53.549Z,15.10
2023-07-15T20:32:22.068Z,11.90
2023-07-15T20:34:49.176Z,12.90
2023-07-15T20:37:16.237Z,16.90
2023-07-15T20:39:43.178Z,9.30
2023-07-15T20:42:11.051Z,11.50
2023-07-15T20:44:38.404Z,11.10
2023-07-15T20:47:06.459Z,12.00
2023-07-15T20:49:33.502Z,9.80
2023-07-15T20:52:01.187Z,10.30
2023-07-15T20:54:28.224Z,15.90
2023-07-15T20:56:55.744Z,11.00
2023-07-15T20:59:23.027Z,8.70
2023-07-15T21:01:50.416Z,14.00
2023-07-15T21:04:17.757Z,11.20
2023-07-15T21:06:44.997Z,10.70
2023-07-15T21:09:12.247Z,15.50
2023-07-15T21:11:39.764Z,10.10
2023-07-15T21:14:07.164Z,11.80
2023-07-15T21:16:34.553Z,10.30
2023-07-15T21:19:01.884Z,11.30
2023-07-15T21:22:10.916Z,8.80
2023-07-15T21:24:38.778Z,7.40
2023-07-15T21:27:07.084Z,12.00
2023-07-15T21:29:35.400Z,10.50
2023-07-15T21:32:05.077Z,11.60
2023-07-15T21:34:33.587Z,7.80
2023-07-15T21:37:01.275Z,15.60
2023-07-15T21:39:29.440Z,9.10
2023-07-15T21:41:57.163Z,11.10
2023-07-15T21:44:24.893Z,7.40
2023-07-15T21:46:52.661Z,10.90
2023-07-15T21:49:20.406Z,8.40
2023-07-15T21:51:48.094Z,8.70
2023-07-15T21:54:15.835Z,13.10
2023-07-15T21:56:43.543Z,8.80
2023-07-15T21:59:11.188Z,14.10
2023-07-15T22:01:38.933Z,9.60
2023-07-15T22:04:06.672Z,13.80
2023-07-15T22:06:34.399Z,11.10
2023-07-15T22:09:02.719Z,15.00
2023-07-15T22:11:30.419Z,9.10
2023-07-15T22:13:58.150Z,11.60
2023-07-15T22:16:25.857Z,15.90
2023-07-15T22:18:53.878Z,12.80
2023-07-15T22:21:21.568Z,10.10
2023-07-15T22:23:49.539Z,5.80
2023-07-15T22:26:17.643Z,8.30
2023-07-15T22:28:45.694Z,8.30
2023-07-15T22:31:13.680Z,9.00
2023-07-15T22:33:41.448Z,8.60
2023-07-15T22:36:09.180Z,8.20
2023-07-15T22:38:36.875Z,10.70
2023-07-15T22:41:04.582Z,9.50
2023-07-15T22:43:32.246Z,13.70
2023-07-15T22:45:59.916Z,12.40
2023-07-15T22:48:28.219Z,10.30
2023-07-15T22:50:55.965Z,8.90
2023-07-15T22:53:24.614Z,11.00
2023-07-15T22:55:52.409Z,12.20
2023-07-15T22:58:20.199Z,8.00
2023-07-15T23:00:47.926Z,10.70
2023-07-15T23:03:15.716Z,8.60
2023-07-15T23:05:43.484Z,10.00
2023-07-15T23:08:11.186Z,8.40
2023-07-15T23:10:40.479Z,11.00
2023-07-15T23:13:08.192Z,7.90
2023-07-15T23:15:35.896Z,9.20
2023-07-15T23:18:03.720Z,10.90
2023-07-15T23:20:31.473Z,12.00
2023-07-15T23:23:14.546Z,11.60
2023-07-15T23:25:43.998Z,11.30
2023-07-15T23:28:11.786Z,7.10
2023-07-15T23:30:39.473Z,9.40
2023-07-15T23:33:07.280Z,7.50
2023-07-15T23:35:40.424Z,10.40
2023-07-15T23:38:08.638Z,8.60
2023-07-15T23:40:36.542Z,6.20
2023-07-15T23:43:04.299Z,11.20
2023-07-15T23:45:33.112Z,10.50
2023-07-15T23:48:00.925Z,8.40
2023-07-15T23:50:28.739Z,11.30
2023-07-15T23:52:56.423Z,10.40
2023-07-15T23:55:24.138Z,7.10
2023-07-15T23:57:51.911Z,13.60
